| State | Missouri | Latest | High (304 cfs) | |
| River | Spring River | Rating | Observed | Estimated |
| Updated | 2026-05-05 5:30 (1 hour ago) | Flood - The river is flooding. Obstacles can be treacherous or deadly. The river should be avoided at this stage for casual trips and definitely for the inexperienced. Trips should be attempted only with protective gear and equipment.Flood | (none) | 1286 |
| Discharge | 304 cfs (median: 317 cfs) | High - The river is high and potentially dangerous, especially for the young and / or inexperienced. Normal stream obstacles are sometimes difficult to navigate. Extended distances can be attempted, but canoe travel may not be advisable.High | (none) | 302 |
| Height | 2.13 feet | Good - Conditions are ideal for a canoe or kayak. Boats typically will drag on fewer than one-quarter of riffles, if at all, and portages are unnecessary or rare. Normal float lengths can be attempted without a problem.Good | (none) | 272 |
| Trend | Rising (falling over 24 hours) | Low - River is low but can still be floated. Some riffles are okay but most come with significant dragging and might need a portage. Float lengths should be reduced to accommodate low flow, dragging, and portages.Low | (none) | 157 |
| USGS | USGS Site ( Duck Duck Go Maps) | Poor - River is too low to float comfortably. Most or all riffles will drag or must be portaged and some obstacles (such as slick shelf rock) cause undue problems. Avoid the river at this stage for casual paddling trips.Poor | (none) | 45 |
| Date | Start | End | Distance | Condition | Discharge | Height | Fishing | Details |
|---|
A total of 0 rows are displayed.
BLG - Bluegill
CCF - Channel Catfish
CP - Chain Pickerel
FWD - Freshwater Drum
GSF - Green Sunfish
KSB - Kentucky Spotted Bass
LMB - Largemouth Bass
LSF - Longear Sunfish
RB - Rock Bass / Goggle Eye
RSF - Redear Sunfish
RT - Rainbow Trout
SMB - Smallmouth Bass
WB - White Bass
WF - Whitefish
WL - WalleyeThe classic River Trips application is still available for use. It is updated with the new system using a data retrofit. It is no longer maintained. The original River Trips application is no longer updated (as of 1 Dec 2016) but can be checked for errors or for the condition of the data before it was converted to the new system.
| Observation | Height | Discharge | Maximum Discharge | Minimum Discharge | Mean Discharge | P05 | P10 | P20 | P25 | P50 (Median) | P75 | P80 | P90 | P95 |
|---|---|---|---|---|---|---|---|---|---|---|---|---|---|---|
| 2026-05-05 05:30 | 2.13 | 304 | 13800 (2022) | 45 (1963) | 789 | 85 | 102 | 151 | 197 | 317 | 682 | 735 | 1010 | 2420 |
| 2026-05-05 04:30 | 2.08 | 289 | 13800 (2022) | 45 (1963) | 789 | 85 | 102 | 151 | 197 | 317 | 682 | 735 | 1010 | 2420 |
| 2026-05-05 03:30 | 2.10 | 295 | 13800 (2022) | 45 (1963) | 789 | 85 | 102 | 151 | 197 | 317 | 682 | 735 | 1010 | 2420 |
| 2026-05-05 02:30 | 2.03 | 274 | 13800 (2022) | 45 (1963) | 789 | 85 | 102 | 151 | 197 | 317 | 682 | 735 | 1010 | 2420 |
| 2026-05-05 01:30 | 2.07 | 286 | 13800 (2022) | 45 (1963) | 789 | 85 | 102 | 151 | 197 | 317 | 682 | 735 | 1010 | 2420 |
| 2026-05-05 00:30 | 2.10 | 295 | 13800 (2022) | 45 (1963) | 789 | 85 | 102 | 151 | 197 | 317 | 682 | 735 | 1010 | 2420 |
| 2026-05-04 23:30 | 2.11 | 298 | 13800 (2022) | 45 (1963) | 789 | 85 | 102 | 151 | 197 | 317 | 682 | 735 | 1010 | 2420 |
| 2026-05-04 22:30 | 2.11 | 298 | 2870 (2017) | 45 (1963) | 516 | 89 | 101 | 150 | 178 | 322 | 670 | 781 | 1020 | 2010 |
| 2026-05-04 21:30 | 2.12 | 301 | 2870 (2017) | 45 (1963) | 516 | 89 | 101 | 150 | 178 | 322 | 670 | 781 | 1020 | 2010 |
| 2026-05-04 20:30 | 2.11 | 298 | 2870 (2017) | 45 (1963) | 516 | 89 | 101 | 150 | 178 | 322 | 670 | 781 | 1020 | 2010 |
| 2026-05-04 19:30 | 2.14 | 307 | 2870 (2017) | 45 (1963) | 516 | 89 | 101 | 150 | 178 | 322 | 670 | 781 | 1020 | 2010 |
| 2026-05-04 18:30 | 2.14 | 307 | 2870 (2017) | 45 (1963) | 516 | 89 | 101 | 150 | 178 | 322 | 670 | 781 | 1020 | 2010 |
| 2026-05-04 17:30 | 2.12 | 301 | 2870 (2017) | 45 (1963) | 516 | 89 | 101 | 150 | 178 | 322 | 670 | 781 | 1020 | 2010 |
| 2026-05-04 16:30 | 2.13 | 304 | 2870 (2017) | 45 (1963) | 516 | 89 | 101 | 150 | 178 | 322 | 670 | 781 | 1020 | 2010 |
| 2026-05-04 15:30 | 2.11 | 298 | 2870 (2017) | 45 (1963) | 516 | 89 | 101 | 150 | 178 | 322 | 670 | 781 | 1020 | 2010 |
| 2026-05-04 14:30 | 2.15 | 310 | 2870 (2017) | 45 (1963) | 516 | 89 | 101 | 150 | 178 | 322 | 670 | 781 | 1020 | 2010 |
| 2026-05-04 13:30 | 2.15 | 310 | 2870 (2017) | 45 (1963) | 516 | 89 | 101 | 150 | 178 | 322 | 670 | 781 | 1020 | 2010 |
| 2026-05-04 12:30 | 2.15 | 310 | 2870 (2017) | 45 (1963) | 516 | 89 | 101 | 150 | 178 | 322 | 670 | 781 | 1020 | 2010 |
| 2026-05-04 11:30 | 2.16 | 313 | 2870 (2017) | 45 (1963) | 516 | 89 | 101 | 150 | 178 | 322 | 670 | 781 | 1020 | 2010 |
| 2026-05-04 10:30 | 2.17 | 316 | 2870 (2017) | 45 (1963) | 516 | 89 | 101 | 150 | 178 | 322 | 670 | 781 | 1020 | 2010 |
| 2026-05-04 09:30 | 2.19 | 322 | 2870 (2017) | 45 (1963) | 516 | 89 | 101 | 150 | 178 | 322 | 670 | 781 | 1020 | 2010 |
| 2026-05-04 08:30 | 2.17 | 316 | 2870 (2017) | 45 (1963) | 516 | 89 | 101 | 150 | 178 | 322 | 670 | 781 | 1020 | 2010 |
| 2026-05-04 07:30 | 2.16 | 313 | 2870 (2017) | 45 (1963) | 516 | 89 | 101 | 150 | 178 | 322 | 670 | 781 | 1020 | 2010 |
| 2026-05-04 06:30 | 2.17 | 316 | 2870 (2017) | 45 (1963) | 516 | 89 | 101 | 150 | 178 | 322 | 670 | 781 | 1020 | 2010 |
| 2026-05-04 05:30 | 2.16 | 313 | 2870 (2017) | 45 (1963) | 516 | 89 | 101 | 150 | 178 | 322 | 670 | 781 | 1020 | 2010 |
| 2026-05-04 04:30 | 2.16 | 313 | 2870 (2017) | 45 (1963) | 516 | 89 | 101 | 150 | 178 | 322 | 670 | 781 | 1020 | 2010 |
| 2026-05-04 03:30 | 2.17 | 316 | 2870 (2017) | 45 (1963) | 516 | 89 | 101 | 150 | 178 | 322 | 670 | 781 | 1020 | 2010 |
| 2026-05-04 02:30 | 2.18 | 319 | 2870 (2017) | 45 (1963) | 516 | 89 | 101 | 150 | 178 | 322 | 670 | 781 | 1020 | 2010 |
| 2026-05-04 01:30 | 2.18 | 319 | 2870 (2017) | 45 (1963) | 516 | 89 | 101 | 150 | 178 | 322 | 670 | 781 | 1020 | 2010 |
| 2026-05-04 00:30 | 2.19 | 322 | 2870 (2017) | 45 (1963) | 516 | 89 | 101 | 150 | 178 | 322 | 670 | 781 | 1020 | 2010 |
| 2026-05-03 23:30 | 2.19 | 322 | 2870 (2017) | 45 (1963) | 516 | 89 | 101 | 150 | 178 | 322 | 670 | 781 | 1020 | 2010 |
| 2026-05-03 22:30 | 2.22 | 332 | 3910 (2017) | 43 (1963) | 506 | 93 | 105 | 157 | 188 | 316 | 662 | 754 | 1040 | 1270 |
| 2026-05-03 21:30 | 2.22 | 332 | 3910 (2017) | 43 (1963) | 506 | 93 | 105 | 157 | 188 | 316 | 662 | 754 | 1040 | 1270 |
| 2026-05-03 20:30 | 2.22 | 332 | 3910 (2017) | 43 (1963) | 506 | 93 | 105 | 157 | 188 | 316 | 662 | 754 | 1040 | 1270 |
| 2026-05-03 19:30 | 2.23 | 335 | 3910 (2017) | 43 (1963) | 506 | 93 | 105 | 157 | 188 | 316 | 662 | 754 | 1040 | 1270 |
| 2026-05-03 18:30 | 2.23 | 335 | 3910 (2017) | 43 (1963) | 506 | 93 | 105 | 157 | 188 | 316 | 662 | 754 | 1040 | 1270 |
| 2026-05-03 17:30 | 2.26 | 344 | 3910 (2017) | 43 (1963) | 506 | 93 | 105 | 157 | 188 | 316 | 662 | 754 | 1040 | 1270 |
| 2026-05-03 16:30 | 2.27 | 348 | 3910 (2017) | 43 (1963) | 506 | 93 | 105 | 157 | 188 | 316 | 662 | 754 | 1040 | 1270 |
| 2026-05-03 15:30 | 2.28 | 351 | 3910 (2017) | 43 (1963) | 506 | 93 | 105 | 157 | 188 | 316 | 662 | 754 | 1040 | 1270 |
| 2026-05-03 14:30 | 2.24 | 338 | 3910 (2017) | 43 (1963) | 506 | 93 | 105 | 157 | 188 | 316 | 662 | 754 | 1040 | 1270 |
| 2026-05-03 13:30 | 2.24 | 338 | 3910 (2017) | 43 (1963) | 506 | 93 | 105 | 157 | 188 | 316 | 662 | 754 | 1040 | 1270 |
| 2026-05-03 12:30 | 2.23 | 335 | 3910 (2017) | 43 (1963) | 506 | 93 | 105 | 157 | 188 | 316 | 662 | 754 | 1040 | 1270 |
| 2026-05-03 11:30 | 2.26 | 344 | 3910 (2017) | 43 (1963) | 506 | 93 | 105 | 157 | 188 | 316 | 662 | 754 | 1040 | 1270 |
| 2026-05-03 10:30 | 2.26 | 344 | 3910 (2017) | 43 (1963) | 506 | 93 | 105 | 157 | 188 | 316 | 662 | 754 | 1040 | 1270 |
| 2026-05-03 09:30 | 2.25 | 341 | 3910 (2017) | 43 (1963) | 506 | 93 | 105 | 157 | 188 | 316 | 662 | 754 | 1040 | 1270 |
| 2026-05-03 08:30 | 2.25 | 341 | 3910 (2017) | 43 (1963) | 506 | 93 | 105 | 157 | 188 | 316 | 662 | 754 | 1040 | 1270 |
| 2026-05-03 07:30 | 2.25 | 341 | 3910 (2017) | 43 (1963) | 506 | 93 | 105 | 157 | 188 | 316 | 662 | 754 | 1040 | 1270 |
| 2026-05-03 06:30 | 2.25 | 341 | 3910 (2017) | 43 (1963) | 506 | 93 | 105 | 157 | 188 | 316 | 662 | 754 | 1040 | 1270 |
| 2026-05-03 05:30 | 2.25 | 341 | 3910 (2017) | 43 (1963) | 506 | 93 | 105 | 157 | 188 | 316 | 662 | 754 | 1040 | 1270 |
| 2026-05-03 04:30 | 2.25 | 341 | 3910 (2017) | 43 (1963) | 506 | 93 | 105 | 157 | 188 | 316 | 662 | 754 | 1040 | 1270 |
| 2026-05-03 03:30 | 2.26 | 344 | 3910 (2017) | 43 (1963) | 506 | 93 | 105 | 157 | 188 | 316 | 662 | 754 | 1040 | 1270 |
| 2026-05-03 02:30 | 2.26 | 344 | 3910 (2017) | 43 (1963) | 506 | 93 | 105 | 157 | 188 | 316 | 662 | 754 | 1040 | 1270 |
| 2026-05-03 01:30 | 2.26 | 344 | 3910 (2017) | 43 (1963) | 506 | 93 | 105 | 157 | 188 | 316 | 662 | 754 | 1040 | 1270 |
| 2026-05-03 00:30 | 2.26 | 344 | 3910 (2017) | 43 (1963) | 506 | 93 | 105 | 157 | 188 | 316 | 662 | 754 | 1040 | 1270 |
| 2026-05-02 23:30 | 2.26 | 344 | 3910 (2017) | 43 (1963) | 506 | 93 | 105 | 157 | 188 | 316 | 662 | 754 | 1040 | 1270 |
| 2026-05-02 22:30 | 2.27 | 348 | 1910 (2017) | 43 (1963) | 483 | 97 | 115 | 164 | 202 | 310 | 587 | 720 | 1150 | 1770 |
| 2026-05-02 21:30 | 2.27 | 348 | 1910 (2017) | 43 (1963) | 483 | 97 | 115 | 164 | 202 | 310 | 587 | 720 | 1150 | 1770 |
| 2026-05-02 20:30 | 2.27 | 348 | 1910 (2017) | 43 (1963) | 483 | 97 | 115 | 164 | 202 | 310 | 587 | 720 | 1150 | 1770 |
| 2026-05-02 19:30 | 2.25 | 341 | 1910 (2017) | 43 (1963) | 483 | 97 | 115 | 164 | 202 | 310 | 587 | 720 | 1150 | 1770 |
| 2026-05-02 18:30 | 2.28 | 351 | 1910 (2017) | 43 (1963) | 483 | 97 | 115 | 164 | 202 | 310 | 587 | 720 | 1150 | 1770 |
| 2026-05-02 17:30 | 2.29 | 354 | 1910 (2017) | 43 (1963) | 483 | 97 | 115 | 164 | 202 | 310 | 587 | 720 | 1150 | 1770 |
| 2026-05-02 16:30 | 2.29 | 354 | 1910 (2017) | 43 (1963) | 483 | 97 | 115 | 164 | 202 | 310 | 587 | 720 | 1150 | 1770 |
| 2026-05-02 15:30 | 2.30 | 357 | 1910 (2017) | 43 (1963) | 483 | 97 | 115 | 164 | 202 | 310 | 587 | 720 | 1150 | 1770 |
| 2026-05-02 14:30 | 2.31 | 361 | 1910 (2017) | 43 (1963) | 483 | 97 | 115 | 164 | 202 | 310 | 587 | 720 | 1150 | 1770 |
| 2026-05-02 13:30 | 2.33 | 367 | 1910 (2017) | 43 (1963) | 483 | 97 | 115 | 164 | 202 | 310 | 587 | 720 | 1150 | 1770 |
| 2026-05-02 12:30 | 2.34 | 371 | 1910 (2017) | 43 (1963) | 483 | 97 | 115 | 164 | 202 | 310 | 587 | 720 | 1150 | 1770 |
| 2026-05-02 11:30 | 2.34 | 371 | 1910 (2017) | 43 (1963) | 483 | 97 | 115 | 164 | 202 | 310 | 587 | 720 | 1150 | 1770 |
| 2026-05-02 10:30 | 2.34 | 371 | 1910 (2017) | 43 (1963) | 483 | 97 | 115 | 164 | 202 | 310 | 587 | 720 | 1150 | 1770 |
| 2026-05-02 09:30 | 2.35 | 374 | 1910 (2017) | 43 (1963) | 483 | 97 | 115 | 164 | 202 | 310 | 587 | 720 | 1150 | 1770 |
| 2026-05-02 08:30 | 2.35 | 374 | 1910 (2017) | 43 (1963) | 483 | 97 | 115 | 164 | 202 | 310 | 587 | 720 | 1150 | 1770 |
| 2026-05-02 07:30 | 2.36 | 377 | 1910 (2017) | 43 (1963) | 483 | 97 | 115 | 164 | 202 | 310 | 587 | 720 | 1150 | 1770 |
| 2026-05-02 06:30 | 2.35 | 374 | 1910 (2017) | 43 (1963) | 483 | 97 | 115 | 164 | 202 | 310 | 587 | 720 | 1150 | 1770 |
| 2026-05-02 05:30 | 2.36 | 377 | 1910 (2017) | 43 (1963) | 483 | 97 | 115 | 164 | 202 | 310 | 587 | 720 | 1150 | 1770 |
| 2026-05-02 04:30 | 2.36 | 377 | 1910 (2017) | 43 (1963) | 483 | 97 | 115 | 164 | 202 | 310 | 587 | 720 | 1150 | 1770 |
| 2026-05-02 03:30 | 2.36 | 377 | 1910 (2017) | 43 (1963) | 483 | 97 | 115 | 164 | 202 | 310 | 587 | 720 | 1150 | 1770 |
| 2026-05-02 02:30 | 2.37 | 381 | 1910 (2017) | 43 (1963) | 483 | 97 | 115 | 164 | 202 | 310 | 587 | 720 | 1150 | 1770 |
| 2026-05-02 01:30 | 2.37 | 381 | 1910 (2017) | 43 (1963) | 483 | 97 | 115 | 164 | 202 | 310 | 587 | 720 | 1150 | 1770 |
| 2026-05-02 00:30 | 2.38 | 384 | 1910 (2017) | 43 (1963) | 483 | 97 | 115 | 164 | 202 | 310 | 587 | 720 | 1150 | 1770 |
| 2026-05-01 23:30 | 2.38 | 384 | 1910 (2017) | 43 (1963) | 483 | 97 | 115 | 164 | 202 | 310 | 587 | 720 | 1150 | 1770 |
| 2026-05-01 22:30 | 2.39 | 387 | 4160 (2019) | 45 (1963) | 658 | 100 | 119 | 174 | 225 | 326 | 635 | 769 | 1430 | 3700 |
| 2026-05-01 21:30 | 2.38 | 384 | 4160 (2019) | 45 (1963) | 658 | 100 | 119 | 174 | 225 | 326 | 635 | 769 | 1430 | 3700 |
| 2026-05-01 20:30 | 2.39 | 387 | 4160 (2019) | 45 (1963) | 658 | 100 | 119 | 174 | 225 | 326 | 635 | 769 | 1430 | 3700 |
| 2026-05-01 19:30 | 2.39 | 387 | 4160 (2019) | 45 (1963) | 658 | 100 | 119 | 174 | 225 | 326 | 635 | 769 | 1430 | 3700 |
| 2026-05-01 18:30 | 2.40 | 391 | 4160 (2019) | 45 (1963) | 658 | 100 | 119 | 174 | 225 | 326 | 635 | 769 | 1430 | 3700 |
| 2026-05-01 17:30 | 2.40 | 391 | 4160 (2019) | 45 (1963) | 658 | 100 | 119 | 174 | 225 | 326 | 635 | 769 | 1430 | 3700 |
| 2026-05-01 16:30 | 2.40 | 391 | 4160 (2019) | 45 (1963) | 658 | 100 | 119 | 174 | 225 | 326 | 635 | 769 | 1430 | 3700 |
| 2026-05-01 15:30 | 2.41 | 394 | 4160 (2019) | 45 (1963) | 658 | 100 | 119 | 174 | 225 | 326 | 635 | 769 | 1430 | 3700 |
| 2026-05-01 14:30 | 2.42 | 398 | 4160 (2019) | 45 (1963) | 658 | 100 | 119 | 174 | 225 | 326 | 635 | 769 | 1430 | 3700 |
| 2026-05-01 13:30 | 2.43 | 401 | 4160 (2019) | 45 (1963) | 658 | 100 | 119 | 174 | 225 | 326 | 635 | 769 | 1430 | 3700 |
| 2026-05-01 12:30 | 2.45 | 408 | 4160 (2019) | 45 (1963) | 658 | 100 | 119 | 174 | 225 | 326 | 635 | 769 | 1430 | 3700 |
| 2026-05-01 11:30 | 2.45 | 408 | 4160 (2019) | 45 (1963) | 658 | 100 | 119 | 174 | 225 | 326 | 635 | 769 | 1430 | 3700 |
| 2026-05-01 10:30 | 2.43 | 401 | 4160 (2019) | 45 (1963) | 658 | 100 | 119 | 174 | 225 | 326 | 635 | 769 | 1430 | 3700 |
| 2026-05-01 09:30 | 2.44 | 405 | 4160 (2019) | 45 (1963) | 658 | 100 | 119 | 174 | 225 | 326 | 635 | 769 | 1430 | 3700 |
| 2026-05-01 08:30 | 2.45 | 408 | 4160 (2019) | 45 (1963) | 658 | 100 | 119 | 174 | 225 | 326 | 635 | 769 | 1430 | 3700 |
| 2026-05-01 07:30 | 2.43 | 401 | 4160 (2019) | 45 (1963) | 658 | 100 | 119 | 174 | 225 | 326 | 635 | 769 | 1430 | 3700 |
| 2026-05-01 06:30 | 2.44 | 405 | 4160 (2019) | 45 (1963) | 658 | 100 | 119 | 174 | 225 | 326 | 635 | 769 | 1430 | 3700 |
| 2026-05-01 05:30 | 2.46 | 412 | 4160 (2019) | 45 (1963) | 658 | 100 | 119 | 174 | 225 | 326 | 635 | 769 | 1430 | 3700 |
| 2026-05-01 04:30 | 2.46 | 412 | 4160 (2019) | 45 (1963) | 658 | 100 | 119 | 174 | 225 | 326 | 635 | 769 | 1430 | 3700 |
| 2026-05-01 03:30 | 2.47 | 415 | 4160 (2019) | 45 (1963) | 658 | 100 | 119 | 174 | 225 | 326 | 635 | 769 | 1430 | 3700 |
| 2026-05-01 02:30 | 2.47 | 415 | 4160 (2019) | 45 (1963) | 658 | 100 | 119 | 174 | 225 | 326 | 635 | 769 | 1430 | 3700 |
| 2026-05-01 01:30 | 2.48 | 419 | 4160 (2019) | 45 (1963) | 658 | 100 | 119 | 174 | 225 | 326 | 635 | 769 | 1430 | 3700 |
| 2026-05-01 00:30 | 2.48 | 419 | 4160 (2019) | 45 (1963) | 658 | 100 | 119 | 174 | 225 | 326 | 635 | 769 | 1430 | 3700 |
| 2026-04-30 23:30 | 2.49 | 422 | 4160 (2019) | 45 (1963) | 658 | 100 | 119 | 174 | 225 | 326 | 635 | 769 | 1430 | 3700 |
| 2026-04-30 22:30 | 2.50 | 426 | 13400 (2017) | 46 (1963) | 772 | 101 | 122 | 176 | 186 | 302 | 727 | 787 | 1220 | 1790 |
| 2026-04-30 21:30 | 2.50 | 426 | 13400 (2017) | 46 (1963) | 772 | 101 | 122 | 176 | 186 | 302 | 727 | 787 | 1220 | 1790 |
| 2026-04-30 20:30 | 2.51 | 429 | 13400 (2017) | 46 (1963) | 772 | 101 | 122 | 176 | 186 | 302 | 727 | 787 | 1220 | 1790 |
| 2026-04-30 19:30 | 2.51 | 429 | 13400 (2017) | 46 (1963) | 772 | 101 | 122 | 176 | 186 | 302 | 727 | 787 | 1220 | 1790 |
| 2026-04-30 18:30 | 2.53 | 436 | 13400 (2017) | 46 (1963) | 772 | 101 | 122 | 176 | 186 | 302 | 727 | 787 | 1220 | 1790 |
| 2026-04-30 17:30 | 2.54 | 440 | 13400 (2017) | 46 (1963) | 772 | 101 | 122 | 176 | 186 | 302 | 727 | 787 | 1220 | 1790 |
| 2026-04-30 16:30 | 2.55 | 444 | 13400 (2017) | 46 (1963) | 772 | 101 | 122 | 176 | 186 | 302 | 727 | 787 | 1220 | 1790 |
| 2026-04-30 15:30 | 2.55 | 444 | 13400 (2017) | 46 (1963) | 772 | 101 | 122 | 176 | 186 | 302 | 727 | 787 | 1220 | 1790 |
| 2026-04-30 14:30 | 2.56 | 447 | 13400 (2017) | 46 (1963) | 772 | 101 | 122 | 176 | 186 | 302 | 727 | 787 | 1220 | 1790 |
| 2026-04-30 13:30 | 2.58 | 455 | 13400 (2017) | 46 (1963) | 772 | 101 | 122 | 176 | 186 | 302 | 727 | 787 | 1220 | 1790 |
| 2026-04-30 12:30 | 2.58 | 455 | 13400 (2017) | 46 (1963) | 772 | 101 | 122 | 176 | 186 | 302 | 727 | 787 | 1220 | 1790 |
| 2026-04-30 11:30 | 2.59 | 458 | 13400 (2017) | 46 (1963) | 772 | 101 | 122 | 176 | 186 | 302 | 727 | 787 | 1220 | 1790 |
| 2026-04-30 10:30 | 2.60 | 462 | 13400 (2017) | 46 (1963) | 772 | 101 | 122 | 176 | 186 | 302 | 727 | 787 | 1220 | 1790 |
| 2026-04-30 09:30 | 2.61 | 466 | 13400 (2017) | 46 (1963) | 772 | 101 | 122 | 176 | 186 | 302 | 727 | 787 | 1220 | 1790 |
| 2026-04-30 08:30 | 2.61 | 466 | 13400 (2017) | 46 (1963) | 772 | 101 | 122 | 176 | 186 | 302 | 727 | 787 | 1220 | 1790 |
| 2026-04-30 07:30 | 2.62 | 469 | 13400 (2017) | 46 (1963) | 772 | 101 | 122 | 176 | 186 | 302 | 727 | 787 | 1220 | 1790 |
| 2026-04-30 06:30 | 2.63 | 473 | 13400 (2017) | 46 (1963) | 772 | 101 | 122 | 176 | 186 | 302 | 727 | 787 | 1220 | 1790 |
| 2026-04-30 05:30 | 2.64 | 477 | 13400 (2017) | 46 (1963) | 772 | 101 | 122 | 176 | 186 | 302 | 727 | 787 | 1220 | 1790 |
| 2026-04-30 04:30 | 2.64 | 477 | 13400 (2017) | 46 (1963) | 772 | 101 | 122 | 176 | 186 | 302 | 727 | 787 | 1220 | 1790 |
| 2026-04-30 03:30 | 2.65 | 481 | 13400 (2017) | 46 (1963) | 772 | 101 | 122 | 176 | 186 | 302 | 727 | 787 | 1220 | 1790 |
| 2026-04-30 02:30 | 2.67 | 488 | 13400 (2017) | 46 (1963) | 772 | 101 | 122 | 176 | 186 | 302 | 727 | 787 | 1220 | 1790 |
| 2026-04-30 01:30 | 2.68 | 492 | 13400 (2017) | 46 (1963) | 772 | 101 | 122 | 176 | 186 | 302 | 727 | 787 | 1220 | 1790 |
| 2026-04-30 00:30 | 2.69 | 496 | 13400 (2017) | 46 (1963) | 772 | 101 | 122 | 176 | 186 | 302 | 727 | 787 | 1220 | 1790 |
| 2026-04-29 23:30 | 2.71 | 503 | 13400 (2017) | 46 (1963) | 772 | 101 | 122 | 176 | 186 | 302 | 727 | 787 | 1220 | 1790 |
| 2026-04-29 22:30 | 2.72 | 507 | 9690 (2017) | 48 (1963) | 636 | 92 | 111 | 165 | 180 | 273 | 485 | 634 | 921 | 2350 |
| 2026-04-29 21:30 | 2.74 | 515 | 9690 (2017) | 48 (1963) | 636 | 92 | 111 | 165 | 180 | 273 | 485 | 634 | 921 | 2350 |
| 2026-04-29 20:30 | 2.76 | 523 | 9690 (2017) | 48 (1963) | 636 | 92 | 111 | 165 | 180 | 273 | 485 | 634 | 921 | 2350 |
| 2026-04-29 19:30 | 2.78 | 531 | 9690 (2017) | 48 (1963) | 636 | 92 | 111 | 165 | 180 | 273 | 485 | 634 | 921 | 2350 |
| 2026-04-29 18:30 | 2.80 | 539 | 9690 (2017) | 48 (1963) | 636 | 92 | 111 | 165 | 180 | 273 | 485 | 634 | 921 | 2350 |
| 2026-04-29 17:30 | 2.81 | 543 | 9690 (2017) | 48 (1963) | 636 | 92 | 111 | 165 | 180 | 273 | 485 | 634 | 921 | 2350 |
| 2026-04-29 16:30 | 2.84 | 555 | 9690 (2017) | 48 (1963) | 636 | 92 | 111 | 165 | 180 | 273 | 485 | 634 | 921 | 2350 |
| 2026-04-29 15:30 | 2.86 | 563 | 9690 (2017) | 48 (1963) | 636 | 92 | 111 | 165 | 180 | 273 | 485 | 634 | 921 | 2350 |
| 2026-04-29 14:30 | 2.88 | 571 | 9690 (2017) | 48 (1963) | 636 | 92 | 111 | 165 | 180 | 273 | 485 | 634 | 921 | 2350 |
| 2026-04-29 13:30 | 2.91 | 583 | 9690 (2017) | 48 (1963) | 636 | 92 | 111 | 165 | 180 | 273 | 485 | 634 | 921 | 2350 |
| 2026-04-29 12:30 | 2.95 | 600 | 9690 (2017) | 48 (1963) | 636 | 92 | 111 | 165 | 180 | 273 | 485 | 634 | 921 | 2350 |
| 2026-04-29 11:30 | 3.00 | 621 | 9690 (2017) | 48 (1963) | 636 | 92 | 111 | 165 | 180 | 273 | 485 | 634 | 921 | 2350 |
| 2026-04-29 10:30 | 3.05 | 643 | 9690 (2017) | 48 (1963) | 636 | 92 | 111 | 165 | 180 | 273 | 485 | 634 | 921 | 2350 |
| 2026-04-29 09:30 | 3.09 | 660 | 9690 (2017) | 48 (1963) | 636 | 92 | 111 | 165 | 180 | 273 | 485 | 634 | 921 | 2350 |
| 2026-04-29 08:30 | 3.12 | 674 | 9690 (2017) | 48 (1963) | 636 | 92 | 111 | 165 | 180 | 273 | 485 | 634 | 921 | 2350 |
| 2026-04-29 07:30 | 3.12 | 674 | 9690 (2017) | 48 (1963) | 636 | 92 | 111 | 165 | 180 | 273 | 485 | 634 | 921 | 2350 |
| 2026-04-29 06:30 | 3.09 | 660 | 9690 (2017) | 48 (1963) | 636 | 92 | 111 | 165 | 180 | 273 | 485 | 634 | 921 | 2350 |
| 2026-04-29 05:30 | 3.07 | 652 | 9690 (2017) | 48 (1963) | 636 | 92 | 111 | 165 | 180 | 273 | 485 | 634 | 921 | 2350 |
| 2026-04-29 04:30 | 3.08 | 656 | 9690 (2017) | 48 (1963) | 636 | 92 | 111 | 165 | 180 | 273 | 485 | 634 | 921 | 2350 |
| 2026-04-29 03:30 | 3.12 | 674 | 9690 (2017) | 48 (1963) | 636 | 92 | 111 | 165 | 180 | 273 | 485 | 634 | 921 | 2350 |
| 2026-04-29 02:30 | 3.17 | 696 | 9690 (2017) | 48 (1963) | 636 | 92 | 111 | 165 | 180 | 273 | 485 | 634 | 921 | 2350 |
| 2026-04-29 01:30 | 3.23 | 723 | 9690 (2017) | 48 (1963) | 636 | 92 | 111 | 165 | 180 | 273 | 485 | 634 | 921 | 2350 |
| 2026-04-29 00:30 | 3.27 | 742 | 9690 (2017) | 48 (1963) | 636 | 92 | 111 | 165 | 180 | 273 | 485 | 634 | 921 | 2350 |
| 2026-04-28 23:30 | 3.25 | 733 | 9690 (2017) | 48 (1963) | 636 | 92 | 111 | 165 | 180 | 273 | 485 | 634 | 921 | 2350 |
| 2026-04-28 22:30 | 3.19 | 705 | 1920 (2011) | 48 (1963) | 404 | 93 | 114 | 164 | 180 | 281 | 455 | 589 | 931 | 1100 |
| 2026-04-28 21:30 | 3.09 | 660 | 1920 (2011) | 48 (1963) | 404 | 93 | 114 | 164 | 180 | 281 | 455 | 589 | 931 | 1100 |
| 2026-04-28 20:30 | 3.02 | 630 | 1920 (2011) | 48 (1963) | 404 | 93 | 114 | 164 | 180 | 281 | 455 | 589 | 931 | 1100 |
| 2026-04-28 19:30 | 3.09 | 660 | 1920 (2011) | 48 (1963) | 404 | 93 | 114 | 164 | 180 | 281 | 455 | 589 | 931 | 1100 |
| 2026-04-28 18:30 | 3.19 | 705 | 1920 (2011) | 48 (1963) | 404 | 93 | 114 | 164 | 180 | 281 | 455 | 589 | 931 | 1100 |
| 2026-04-28 17:30 | 3.25 | 733 | 1920 (2011) | 48 (1963) | 404 | 93 | 114 | 164 | 180 | 281 | 455 | 589 | 931 | 1100 |
| 2026-04-28 16:30 | 3.01 | 625 | 1920 (2011) | 48 (1963) | 404 | 93 | 114 | 164 | 180 | 281 | 455 | 589 | 931 | 1100 |
| 2026-04-28 15:30 | 2.67 | 488 | 1920 (2011) | 48 (1963) | 404 | 93 | 114 | 164 | 180 | 281 | 455 | 589 | 931 | 1100 |
| 2026-04-28 14:30 | 2.48 | 419 | 1920 (2011) | 48 (1963) | 404 | 93 | 114 | 164 | 180 | 281 | 455 | 589 | 931 | 1100 |
| 2026-04-28 13:30 | 2.37 | 381 | 1920 (2011) | 48 (1963) | 404 | 93 | 114 | 164 | 180 | 281 | 455 | 589 | 931 | 1100 |
| 2026-04-28 12:30 | 2.26 | 344 | 1920 (2011) | 48 (1963) | 404 | 93 | 114 | 164 | 180 | 281 | 455 | 589 | 931 | 1100 |
| 2026-04-28 11:30 | 2.27 | 348 | 1920 (2011) | 48 (1963) | 404 | 93 | 114 | 164 | 180 | 281 | 455 | 589 | 931 | 1100 |
| 2026-04-28 10:30 | 2.27 | 348 | 1920 (2011) | 48 (1963) | 404 | 93 | 114 | 164 | 180 | 281 | 455 | 589 | 931 | 1100 |
| 2026-04-28 09:30 | 2.27 | 348 | 1920 (2011) | 48 (1963) | 404 | 93 | 114 | 164 | 180 | 281 | 455 | 589 | 931 | 1100 |
| 2026-04-28 08:30 | 2.26 | 344 | 1920 (2011) | 48 (1963) | 404 | 93 | 114 | 164 | 180 | 281 | 455 | 589 | 931 | 1100 |
| 2026-04-28 07:30 | 2.27 | 348 | 1920 (2011) | 48 (1963) | 404 | 93 | 114 | 164 | 180 | 281 | 455 | 589 | 931 | 1100 |
| 2026-04-28 06:30 | 2.26 | 344 | 1920 (2011) | 48 (1963) | 404 | 93 | 114 | 164 | 180 | 281 | 455 | 589 | 931 | 1100 |
| 2026-04-28 05:30 | 2.27 | 348 | 1920 (2011) | 48 (1963) | 404 | 93 | 114 | 164 | 180 | 281 | 455 | 589 | 931 | 1100 |
| 2026-04-28 04:30 | 2.26 | 344 | 1920 (2011) | 48 (1963) | 404 | 93 | 114 | 164 | 180 | 281 | 455 | 589 | 931 | 1100 |
| 2026-04-28 03:30 | 2.26 | 344 | 1920 (2011) | 48 (1963) | 404 | 93 | 114 | 164 | 180 | 281 | 455 | 589 | 931 | 1100 |
| 2026-04-28 02:30 | 2.25 | 341 | 1920 (2011) | 48 (1963) | 404 | 93 | 114 | 164 | 180 | 281 | 455 | 589 | 931 | 1100 |
| 2026-04-28 01:30 | 2.25 | 341 | 1920 (2011) | 48 (1963) | 404 | 93 | 114 | 164 | 180 | 281 | 455 | 589 | 931 | 1100 |
| 2026-04-28 00:30 | 2.23 | 335 | 1920 (2011) | 48 (1963) | 404 | 93 | 114 | 164 | 180 | 281 | 455 | 589 | 931 | 1100 |
| 2026-04-27 23:30 | 2.23 | 335 | 1920 (2011) | 48 (1963) | 404 | 93 | 114 | 164 | 180 | 281 | 455 | 589 | 931 | 1100 |
A total of 175 rows are displayed for years 1958 through 2025.